Ana Sayfa
METAR-TAF:

METAR-TAF

Havaalanları :

Lanzarote Havalimanı

Lanzarote, İspanya

Enlem: 28-57N, Boylam: 013-36W, yükseklik: 14 m

Güncel hava durumu gözlemi

Rapor saat 03:00 UTC de 36 dakika önce yapıldı.
Rüzgar kuzeydoğudan 15 kt
Sıcaklık 18°C
Nem 73%
Basınç 1024 hPa
Görüş mesafesi 10 km veya daha fazla
2400 ft yükseklikte çok bulutlu

METAR: GCRR 190300Z AUTO 04015KT 9999 OVC024 18/13 Q1024

Saat: 03:36 (03:36 UTC)

Tahmin

Rapor saat 02:00 UTC de 1 saat ve 36 dakika önce yapıldı.
Ayın 19'si saat 03 UTC'den ayın 20'si saat 03 UTC'ye kadar geçerli Tahmin
Rüzgar kuzey/kuzeydoğudan 15 kt
Görüş mesafesi 10 km veya daha fazla
2000 ft yükseklikte az bulutlu

TAF: GCRR 190200Z 1903/2003 02015KT 9999 FEW020 TX22/1914Z TN16/1906Z

4.000'den fazla havaalanı için hava durumu gözlemleri ve tahminleri (METAR ve TAF raporları).

Kullanılabilir istasyonlar harita üzerinde sarı ve kırmızı noktalarla gösterilir.

İstasyonun adını görmek için fareyi noktanın üzerinde gezdirin.

Sonrasında hava gözlem ve tahminlerini görmek için tıklayın.

Haritayı değiştirmek için: yaklaştırmak için siyah artı işaretli yeşil düğmeye ve uzaklaştırmak için de eksi işaretli düğmeye hızla tıklayın; bitişik haritalar için yeşil okları kullanın.


METAR-TAF: